sensor_id;sensor_type;location;lat;lon;timestamp;temperature;humidity
5222;DHT22;2630;52.036;8.514;2022-09-13T00:00:36;18.40;99.90
5222;DHT22;2630;52.036;8.514;2022-09-13T00:03:02;18.30;99.90
5222;DHT22;2630;52.036;8.514;2022-09-13T00:05:29;18.30;99.90
5222;DHT22;2630;52.036;8.514;2022-09-13T00:07:55;18.30;99.90
5222;DHT22;2630;52.036;8.514;2022-09-13T00:10:21;18.30;99.90
5222;DHT22;2630;52.036;8.514;2022-09-13T00:12:47;18.30;99.90
5222;DHT22;2630;52.036;8.514;2022-09-13T00:15:13;18.30;99.90
5222;DHT22;2630;52.036;8.514;2022-09-13T00:17:39;18.30;99.90
5222;DHT22;2630;52.036;8.514;2022-09-13T00:20:05;18.30;99.90
5222;DHT22;2630;52.036;8.514;2022-09-13T00:22:31;18.30;99.90
5222;DHT22;2630;52.036;8.514;2022-09-13T00:24:56;18.30;99.90
5222;DHT22;2630;52.036;8.514;2022-09-13T00:27:22;18.20;99.90
5222;DHT22;2630;52.036;8.514;2022-09-13T00:29:47;18.20;99.90
5222;DHT22;2630;52.036;8.514;2022-09-13T00:32:13;18.10;99.90
5222;DHT22;2630;52.036;8.514;2022-09-13T00:34:39;18.10;99.90
5222;DHT22;2630;52.036;8.514;2022-09-13T00:37:04;18.10;99.90
5222;DHT22;2630;52.036;8.514;2022-09-13T00:39:30;18.20;99.90
5222;DHT22;2630;52.036;8.514;2022-09-13T00:41:56;18.10;99.90
5222;DHT22;2630;52.036;8.514;2022-09-13T00:47:41;18.00;99.90
5222;DHT22;2630;52.036;8.514;2022-09-13T00:52:58;18.10;99.90
5222;DHT22;2630;52.036;8.514;2022-09-13T00:55:43;18.10;99.90
5222;DHT22;2630;52.036;8.514;2022-09-13T00:58:15;18.10;99.90
5222;DHT22;2630;52.036;8.514;2022-09-13T01:00:43;18.10;99.90
5222;DHT22;2630;52.036;8.514;2022-09-13T01:03:11;18.20;99.90
5222;DHT22;2630;52.036;8.514;2022-09-13T01:05:41;18.20;99.90
5222;DHT22;2630;52.036;8.514;2022-09-13T01:08:09;18.30;99.90
5222;DHT22;2630;52.036;8.514;2022-09-13T01:13:13;18.30;99.90
5222;DHT22;2630;52.036;8.514;2022-09-13T01:15:40;18.30;99.90
5222;DHT22;2630;52.036;8.514;2022-09-13T01:18:07;18.30;99.90
5222;DHT22;2630;52.036;8.514;2022-09-13T01:31:56;18.20;99.90
5222;DHT22;2630;52.036;8.514;2022-09-13T01:38:26;18.30;99.90
5222;DHT22;2630;52.036;8.514;2022-09-13T01:43:36;18.30;99.90
5222;DHT22;2630;52.036;8.514;2022-09-13T01:54:10;18.40;99.90
5222;DHT22;2630;52.036;8.514;2022-09-13T01:59:24;18.40;99.90
5222;DHT22;2630;52.036;8.514;2022-09-13T02:02:04;18.40;99.90
5222;DHT22;2630;52.036;8.514;2022-09-13T02:07:18;18.50;99.90
5222;DHT22;2630;52.036;8.514;2022-09-13T02:09:48;18.50;99.90
5222;DHT22;2630;52.036;8.514;2022-09-13T02:12:22;18.60;99.90
5222;DHT22;2630;52.036;8.514;2022-09-13T02:14:55;18.60;99.90
5222;DHT22;2630;52.036;8.514;2022-09-13T02:19:55;18.70;99.90
5222;DHT22;2630;52.036;8.514;2022-09-13T02:22:30;18.70;99.90
5222;DHT22;2630;52.036;8.514;2022-09-13T02:25:06;18.70;99.90
5222;DHT22;2630;52.036;8.514;2022-09-13T02:27:33;18.60;99.90
5222;DHT22;2630;52.036;8.514;2022-09-13T02:42:38;18.80;99.90
5222;DHT22;2630;52.036;8.514;2022-09-13T02:45:06;18.70;99.90
5222;DHT22;2630;52.036;8.514;2022-09-13T02:52:57;18.60;99.90
5222;DHT22;2630;52.036;8.514;2022-09-13T02:58:37;18.70;99.90
5222;DHT22;2630;52.036;8.514;2022-09-13T03:01:04;18.70;99.90
5222;DHT22;2630;52.036;8.514;2022-09-13T03:03:30;18.70;99.90
5222;DHT22;2630;52.036;8.514;2022-09-13T03:05:56;18.60;99.90
5222;DHT22;2630;52.036;8.514;2022-09-13T03:08:21;18.60;99.90
5222;DHT22;2630;52.036;8.514;2022-09-13T03:21:39;18.70;99.90
5222;DHT22;2630;52.036;8.514;2022-09-13T03:24:25;18.70;99.90
5222;DHT22;2630;52.036;8.514;2022-09-13T03:29:57;18.80;99.90
5222;DHT22;2630;52.036;8.514;2022-09-13T03:32:35;18.70;99.90
5222;DHT22;2630;52.036;8.514;2022-09-13T03:40:18;18.80;99.90
5222;DHT22;2630;52.036;8.514;2022-09-13T03:42:52;18.70;99.90
5222;DHT22;2630;52.036;8.514;2022-09-13T03:45:24;18.80;99.90
5222;DHT22;2630;52.036;8.514;2022-09-13T03:47:52;18.80;99.90
5222;DHT22;2630;52.036;8.514;2022-09-13T03:50:21;18.70;99.90
5222;DHT22;2630;52.036;8.514;2022-09-13T03:52:50;18.70;99.90
5222;DHT22;2630;52.036;8.514;2022-09-13T03:55:19;18.70;99.90
5222;DHT22;2630;52.036;8.514;2022-09-13T03:57:45;18.70;99.90
5222;DHT22;2630;52.036;8.514;2022-09-13T04:00:13;18.70;99.90
5222;DHT22;2630;52.036;8.514;2022-09-13T04:02:39;18.70;99.90
5222;DHT22;2630;52.036;8.514;2022-09-13T04:05:05;18.70;99.90
5222;DHT22;2630;52.036;8.514;2022-09-13T04:07:31;18.60;99.90
5222;DHT22;2630;52.036;8.514;2022-09-13T04:09:56;18.60;99.90
5222;DHT22;2630;52.036;8.514;2022-09-13T04:12:22;18.60;99.90
5222;DHT22;2630;52.036;8.514;2022-09-13T04:14:48;18.60;99.90
5222;DHT22;2630;52.036;8.514;2022-09-13T04:17:14;18.60;99.90
5222;DHT22;2630;52.036;8.514;2022-09-13T04:19:40;18.60;99.90
5222;DHT22;2630;52.036;8.514;2022-09-13T04:22:06;18.60;99.90
5222;DHT22;2630;52.036;8.514;2022-09-13T04:24:32;18.70;99.90
5222;DHT22;2630;52.036;8.514;2022-09-13T04:26:58;18.70;99.90
5222;DHT22;2630;52.036;8.514;2022-09-13T04:29:25;18.70;99.90
5222;DHT22;2630;52.036;8.514;2022-09-13T04:31:52;18.70;99.90
5222;DHT22;2630;52.036;8.514;2022-09-13T04:36:46;18.60;99.90
5222;DHT22;2630;52.036;8.514;2022-09-13T04:39:12;18.60;99.90
5222;DHT22;2630;52.036;8.514;2022-09-13T04:41:42;18.60;99.90
5222;DHT22;2630;52.036;8.514;2022-09-13T04:44:11;18.60;99.90
5222;DHT22;2630;52.036;8.514;2022-09-13T04:46:37;18.50;99.90
5222;DHT22;2630;52.036;8.514;2022-09-13T04:51:29;18.60;99.90
5222;DHT22;2630;52.036;8.514;2022-09-13T04:56:22;18.50;99.90
5222;DHT22;2630;52.036;8.514;2022-09-13T04:58:52;18.50;99.90
5222;DHT22;2630;52.036;8.514;2022-09-13T05:01:19;18.40;99.90
5222;DHT22;2630;52.036;8.514;2022-09-13T05:03:45;18.40;99.90
5222;DHT22;2630;52.036;8.514;2022-09-13T05:06:15;18.40;99.90
5222;DHT22;2630;52.036;8.514;2022-09-13T05:08:42;18.40;99.90
5222;DHT22;2630;52.036;8.514;2022-09-13T05:16:03;18.40;99.90
5222;DHT22;2630;52.036;8.514;2022-09-13T05:18:31;18.40;99.90
5222;DHT22;2630;52.036;8.514;2022-09-13T05:20:58;18.40;99.90
5222;DHT22;2630;52.036;8.514;2022-09-13T05:25:55;18.40;99.90
5222;DHT22;2630;52.036;8.514;2022-09-13T05:28:22;18.40;99.90
5222;DHT22;2630;52.036;8.514;2022-09-13T05:33:32;18.40;99.90
5222;DHT22;2630;52.036;8.514;2022-09-13T05:35:58;18.50;99.90
5222;DHT22;2630;52.036;8.514;2022-09-13T05:40:54;18.60;99.90
5222;DHT22;2630;52.036;8.514;2022-09-13T05:43:22;18.60;99.90
5222;DHT22;2630;52.036;8.514;2022-09-13T05:45:48;18.70;99.90
5222;DHT22;2630;52.036;8.514;2022-09-13T05:48:13;18.70;99.90
5222;DHT22;2630;52.036;8.514;2022-09-13T05:50:39;18.70;99.90
5222;DHT22;2630;52.036;8.514;2022-09-13T05:53:04;18.70;99.90
5222;DHT22;2630;52.036;8.514;2022-09-13T05:55:31;18.70;99.90
5222;DHT22;2630;52.036;8.514;2022-09-13T06:00:23;18.80;99.90
5222;DHT22;2630;52.036;8.514;2022-09-13T06:02:48;18.80;99.90
5222;DHT22;2630;52.036;8.514;2022-09-13T06:05:14;18.80;99.90
5222;DHT22;2630;52.036;8.514;2022-09-13T06:07:40;18.90;99.90
5222;DHT22;2630;52.036;8.514;2022-09-13T06:10:07;18.90;99.90
5222;DHT22;2630;52.036;8.514;2022-09-13T06:14:59;19.00;99.90
5222;DHT22;2630;52.036;8.514;2022-09-13T06:19:51;19.00;99.90
5222;DHT22;2630;52.036;8.514;2022-09-13T06:32:02;19.10;99.90
5222;DHT22;2630;52.036;8.514;2022-09-13T06:36:53;19.30;99.90
5222;DHT22;2630;52.036;8.514;2022-09-13T06:39:19;19.40;99.90
5222;DHT22;2630;52.036;8.514;2022-09-13T06:41:45;19.50;99.90
5222;DHT22;2630;52.036;8.514;2022-09-13T06:46:37;19.70;99.90
5222;DHT22;2630;52.036;8.514;2022-09-13T06:49:04;19.80;99.90
5222;DHT22;2630;52.036;8.514;2022-09-13T06:51:31;19.90;99.90
5222;DHT22;2630;52.036;8.514;2022-09-13T06:53:57;20.00;99.90
5222;DHT22;2630;52.036;8.514;2022-09-13T06:56:28;20.10;99.90
5222;DHT22;2630;52.036;8.514;2022-09-13T06:58:57;20.20;99.90
5222;DHT22;2630;52.036;8.514;2022-09-13T07:01:28;20.20;99.90
5222;DHT22;2630;52.036;8.514;2022-09-13T07:04:00;20.30;99.90
5222;DHT22;2630;52.036;8.514;2022-09-13T07:08:56;20.70;99.90
5222;DHT22;2630;52.036;8.514;2022-09-13T07:11:24;20.90;99.90
5222;DHT22;2630;52.036;8.514;2022-09-13T07:13:51;21.00;99.90
5222;DHT22;2630;52.036;8.514;2022-09-13T07:18:44;20.90;99.90
5222;DHT22;2630;52.036;8.514;2022-09-13T07:21:14;20.70;99.90
5222;DHT22;2630;52.036;8.514;2022-09-13T07:23:42;20.60;99.90
5222;DHT22;2630;52.036;8.514;2022-09-13T07:26:08;20.40;99.90
5222;DHT22;2630;52.036;8.514;2022-09-13T07:28:39;20.30;99.90
5222;DHT22;2630;52.036;8.514;2022-09-13T07:31:10;20.20;99.90
5222;DHT22;2630;52.036;8.514;2022-09-13T07:38:42;20.20;99.90
5222;DHT22;2630;52.036;8.514;2022-09-13T07:41:15;20.30;99.90
5222;DHT22;2630;52.036;8.514;2022-09-13T07:43:41;20.30;99.90
5222;DHT22;2630;52.036;8.514;2022-09-13T07:46:09;20.30;99.90
5222;DHT22;2630;52.036;8.514;2022-09-13T07:48:37;20.30;99.90
5222;DHT22;2630;52.036;8.514;2022-09-13T07:51:26;20.20;99.90
5222;DHT22;2630;52.036;8.514;2022-09-13T07:53:55;20.20;99.90
5222;DHT22;2630;52.036;8.514;2022-09-13T07:58:49;20.10;99.90
5222;DHT22;2630;52.036;8.514;2022-09-13T08:01:18;20.20;99.90
5222;DHT22;2630;52.036;8.514;2022-09-13T08:03:50;20.30;99.90
5222;DHT22;2630;52.036;8.514;2022-09-13T08:06:16;20.30;99.90
5222;DHT22;2630;52.036;8.514;2022-09-13T08:08:41;20.30;99.90
5222;DHT22;2630;52.036;8.514;2022-09-13T08:11:07;20.20;99.90
5222;DHT22;2630;52.036;8.514;2022-09-13T08:13:33;20.20;99.90
5222;DHT22;2630;52.036;8.514;2022-09-13T08:16:04;20.10;99.90
5222;DHT22;2630;52.036;8.514;2022-09-13T08:18:30;20.20;99.90
5222;DHT22;2630;52.036;8.514;2022-09-13T08:20:57;20.30;99.90
5222;DHT22;2630;52.036;8.514;2022-09-13T08:25:50;20.70;99.90
5222;DHT22;2630;52.036;8.514;2022-09-13T08:28:17;20.70;99.90
5222;DHT22;2630;52.036;8.514;2022-09-13T08:30:43;20.80;99.90
5222;DHT22;2630;52.036;8.514;2022-09-13T08:33:10;20.80;99.90
5222;DHT22;2630;52.036;8.514;2022-09-13T08:35:36;20.90;99.90
5222;DHT22;2630;52.036;8.514;2022-09-13T08:38:02;20.90;99.90
5222;DHT22;2630;52.036;8.514;2022-09-13T08:40:37;20.80;99.90
5222;DHT22;2630;52.036;8.514;2022-09-13T08:45:30;20.60;99.90
5222;DHT22;2630;52.036;8.514;2022-09-13T08:47:58;20.60;99.90
5222;DHT22;2630;52.036;8.514;2022-09-13T08:50:31;20.40;99.90
5222;DHT22;2630;52.036;8.514;2022-09-13T08:55:29;20.40;99.90
5222;DHT22;2630;52.036;8.514;2022-09-13T09:00:37;20.40;99.90
5222;DHT22;2630;52.036;8.514;2022-09-13T09:03:37;20.40;99.90
5222;DHT22;2630;52.036;8.514;2022-09-13T09:06:12;20.30;99.90
5222;DHT22;2630;52.036;8.514;2022-09-13T09:08:51;20.40;99.90
5222;DHT22;2630;52.036;8.514;2022-09-13T09:11:39;20.40;99.90
5222;DHT22;2630;52.036;8.514;2022-09-13T09:14:07;20.40;99.90
5222;DHT22;2630;52.036;8.514;2022-09-13T09:16:47;20.40;99.90
5222;DHT22;2630;52.036;8.514;2022-09-13T09:19:25;20.40;99.90
5222;DHT22;2630;52.036;8.514;2022-09-13T09:21:52;20.50;99.90
5222;DHT22;2630;52.036;8.514;2022-09-13T09:24:24;20.60;99.90
5222;DHT22;2630;52.036;8.514;2022-09-13T09:26:54;20.80;99.90
5222;DHT22;2630;52.036;8.514;2022-09-13T09:29:40;20.90;99.90
5222;DHT22;2630;52.036;8.514;2022-09-13T09:38:23;20.90;99.90
5222;DHT22;2630;52.036;8.514;2022-09-13T09:40:52;21.00;99.90
5222;DHT22;2630;52.036;8.514;2022-09-13T09:43:40;21.10;99.90
5222;DHT22;2630;52.036;8.514;2022-09-13T09:46:08;21.30;99.90
5222;DHT22;2630;52.036;8.514;2022-09-13T09:48:49;21.30;99.90
5222;DHT22;2630;52.036;8.514;2022-09-13T09:51:19;21.60;99.90
5222;DHT22;2630;52.036;8.514;2022-09-13T09:53:48;21.80;99.90
5222;DHT22;2630;52.036;8.514;2022-09-13T09:56:33;21.90;99.90
5222;DHT22;2630;52.036;8.514;2022-09-13T09:58:59;21.90;99.90
5222;DHT22;2630;52.036;8.514;2022-09-13T10:01:30;21.80;99.90
5222;DHT22;2630;52.036;8.514;2022-09-13T10:04:14;21.70;99.90
5222;DHT22;2630;52.036;8.514;2022-09-13T10:11:53;22.00;99.90
5222;DHT22;2630;52.036;8.514;2022-09-13T10:17:23;22.30;99.90
5222;DHT22;2630;52.036;8.514;2022-09-13T10:20:00;22.30;99.90
5222;DHT22;2630;52.036;8.514;2022-09-13T10:22:30;22.30;99.90
5222;DHT22;2630;52.036;8.514;2022-09-13T10:25:24;22.40;99.90
5222;DHT22;2630;52.036;8.514;2022-09-13T10:27:56;22.40;99.90
5222;DHT22;2630;52.036;8.514;2022-09-13T10:30:41;22.60;99.90
5222;DHT22;2630;52.036;8.514;2022-09-13T10:33:29;22.70;99.90
5222;DHT22;2630;52.036;8.514;2022-09-13T10:36:02;22.70;99.90
5222;DHT22;2630;52.036;8.514;2022-09-13T10:38:31;22.70;99.90
5222;DHT22;2630;52.036;8.514;2022-09-13T10:40:58;22.60;99.90
5222;DHT22;2630;52.036;8.514;2022-09-13T10:43:27;22.70;99.90
5222;DHT22;2630;52.036;8.514;2022-09-13T10:45:54;22.80;99.90
5222;DHT22;2630;52.036;8.514;2022-09-13T10:48:21;23.00;99.90
5222;DHT22;2630;52.036;8.514;2022-09-13T10:51:07;23.20;99.90
5222;DHT22;2630;52.036;8.514;2022-09-13T10:53:42;23.40;99.90
5222;DHT22;2630;52.036;8.514;2022-09-13T10:56:20;23.50;99.90
5222;DHT22;2630;52.036;8.514;2022-09-13T10:58:45;23.40;99.90
5222;DHT22;2630;52.036;8.514;2022-09-13T11:01:52;23.20;99.90
5222;DHT22;2630;52.036;8.514;2022-09-13T11:12:53;22.50;99.90
5222;DHT22;2630;52.036;8.514;2022-09-13T11:21:03;22.50;99.90
5222;DHT22;2630;52.036;8.514;2022-09-13T11:45:48;22.20;99.90
5222;DHT22;2630;52.036;8.514;2022-09-13T11:48:34;22.20;99.90
5222;DHT22;2630;52.036;8.514;2022-09-13T11:54:29;22.40;99.90
5222;DHT22;2630;52.036;8.514;2022-09-13T11:59:45;22.50;99.90
5222;DHT22;2630;52.036;8.514;2022-09-13T12:02:28;22.60;99.90
5222;DHT22;2630;52.036;8.514;2022-09-13T12:05:02;22.70;99.90
5222;DHT22;2630;52.036;8.514;2022-09-13T12:07:47;22.80;99.90
5222;DHT22;2630;52.036;8.514;2022-09-13T12:10:28;22.80;99.90
5222;DHT22;2630;52.036;8.514;2022-09-13T12:17:58;22.60;99.90
5222;DHT22;2630;52.036;8.514;2022-09-13T12:20:33;22.50;99.90
5222;DHT22;2630;52.036;8.514;2022-09-13T12:23:02;22.40;99.90
5222;DHT22;2630;52.036;8.514;2022-09-13T12:28:16;22.30;99.90
5222;DHT22;2630;52.036;8.514;2022-09-13T12:30:58;22.20;99.90
5222;DHT22;2630;52.036;8.514;2022-09-13T12:33:24;22.00;99.90
5222;DHT22;2630;52.036;8.514;2022-09-13T12:36:33;22.10;99.90
5222;DHT22;2630;52.036;8.514;2022-09-13T12:41:45;22.00;99.90
5222;DHT22;2630;52.036;8.514;2022-09-13T12:52:43;22.30;99.90
5222;DHT22;2630;52.036;8.514;2022-09-13T12:55:29;22.40;99.90
5222;DHT22;2630;52.036;8.514;2022-09-13T13:03:34;22.40;99.90
5222;DHT22;2630;52.036;8.514;2022-09-13T13:08:49;22.60;99.90
5222;DHT22;2630;52.036;8.514;2022-09-13T13:11:15;22.90;99.90
5222;DHT22;2630;52.036;8.514;2022-09-13T13:14:03;23.10;99.90
5222;DHT22;2630;52.036;8.514;2022-09-13T13:16:35;23.30;99.90
5222;DHT22;2630;52.036;8.514;2022-09-13T13:19:03;23.50;99.90
5222;DHT22;2630;52.036;8.514;2022-09-13T13:21:34;23.70;99.90
5222;DHT22;2630;52.036;8.514;2022-09-13T13:39:36;23.50;99.90
5222;DHT22;2630;52.036;8.514;2022-09-13T13:42:25;23.60;99.90
5222;DHT22;2630;52.036;8.514;2022-09-13T13:49:49;24.20;99.90
5222;DHT22;2630;52.036;8.514;2022-09-13T13:59:08;24.40;99.90
5222;DHT22;2630;52.036;8.514;2022-09-13T14:01:00;24.50;99.90
5222;DHT22;2630;52.036;8.514;2022-09-13T14:03:49;24.40;99.90
5222;DHT22;2630;52.036;8.514;2022-09-13T14:06:51;24.10;99.90
5222;DHT22;2630;52.036;8.514;2022-09-13T14:12:31;23.80;99.90
5222;DHT22;2630;52.036;8.514;2022-09-13T14:15:22;23.70;99.90
5222;DHT22;2630;52.036;8.514;2022-09-13T14:20:36;23.90;99.90
5222;DHT22;2630;52.036;8.514;2022-09-13T14:23:19;24.00;99.90
5222;DHT22;2630;52.036;8.514;2022-09-13T14:25:45;24.00;99.90
5222;DHT22;2630;52.036;8.514;2022-09-13T14:28:21;24.10;99.90
5222;DHT22;2630;52.036;8.514;2022-09-13T14:30:53;24.30;99.90
5222;DHT22;2630;52.036;8.514;2022-09-13T14:33:31;24.60;99.90
5222;DHT22;2630;52.036;8.514;2022-09-13T14:36:03;25.00;99.90
5222;DHT22;2630;52.036;8.514;2022-09-13T14:38:31;25.50;99.90
5222;DHT22;2630;52.036;8.514;2022-09-13T14:41:18;26.30;99.90
5222;DHT22;2630;52.036;8.514;2022-09-13T14:43:45;26.60;99.90
5222;DHT22;2630;52.036;8.514;2022-09-13T14:46:22;26.60;99.90
5222;DHT22;2630;52.036;8.514;2022-09-13T14:53:53;26.40;99.90
5222;DHT22;2630;52.036;8.514;2022-09-13T14:56:34;26.20;99.90
5222;DHT22;2630;52.036;8.514;2022-09-13T14:59:04;26.00;99.90
5222;DHT22;2630;52.036;8.514;2022-09-13T15:01:36;25.30;99.90
5222;DHT22;2630;52.036;8.514;2022-09-13T15:04:03;25.10;99.90
5222;DHT22;2630;52.036;8.514;2022-09-13T15:06:35;24.90;99.90
5222;DHT22;2630;52.036;8.514;2022-09-13T15:11:38;24.60;99.90
5222;DHT22;2630;52.036;8.514;2022-09-13T15:16:51;24.50;99.90
5222;DHT22;2630;52.036;8.514;2022-09-13T15:21:49;24.00;99.90
5222;DHT22;2630;52.036;8.514;2022-09-13T15:24:27;23.90;99.90
5222;DHT22;2630;52.036;8.514;2022-09-13T15:27:05;23.70;99.90
5222;DHT22;2630;52.036;8.514;2022-09-13T15:29:31;23.50;99.90
5222;DHT22;2630;52.036;8.514;2022-09-13T15:32:03;23.30;99.90
5222;DHT22;2630;52.036;8.514;2022-09-13T15:34:29;23.20;99.90
5222;DHT22;2630;52.036;8.514;2022-09-13T15:39:47;22.90;99.90
5222;DHT22;2630;52.036;8.514;2022-09-13T15:42:14;22.80;99.90
5222;DHT22;2630;52.036;8.514;2022-09-13T15:44:40;22.70;99.90
5222;DHT22;2630;52.036;8.514;2022-09-13T15:47:14;22.60;99.90
5222;DHT22;2630;52.036;8.514;2022-09-13T15:49:47;22.50;99.90
5222;DHT22;2630;52.036;8.514;2022-09-13T15:52:13;22.50;99.90
5222;DHT22;2630;52.036;8.514;2022-09-13T15:54:40;22.50;99.90
5222;DHT22;2630;52.036;8.514;2022-09-13T15:57:27;22.40;99.90
5222;DHT22;2630;52.036;8.514;2022-09-13T15:59:54;22.40;99.90
5222;DHT22;2630;52.036;8.514;2022-09-13T16:02:26;22.30;99.90
5222;DHT22;2630;52.036;8.514;2022-09-13T16:04:53;22.20;99.90
5222;DHT22;2630;52.036;8.514;2022-09-13T16:07:19;22.10;99.90
5222;DHT22;2630;52.036;8.514;2022-09-13T16:09:45;22.00;99.90
5222;DHT22;2630;52.036;8.514;2022-09-13T16:12:11;22.00;99.90
5222;DHT22;2630;52.036;8.514;2022-09-13T16:14:36;22.00;99.90
5222;DHT22;2630;52.036;8.514;2022-09-13T16:17:06;22.00;99.90
5222;DHT22;2630;52.036;8.514;2022-09-13T16:19:32;21.90;99.90
5222;DHT22;2630;52.036;8.514;2022-09-13T16:21:58;21.90;99.90
5222;DHT22;2630;52.036;8.514;2022-09-13T16:24:24;21.90;99.90
5222;DHT22;2630;52.036;8.514;2022-09-13T16:26:50;21.90;99.90
5222;DHT22;2630;52.036;8.514;2022-09-13T16:29:15;21.90;99.90
5222;DHT22;2630;52.036;8.514;2022-09-13T16:31:41;21.90;99.90
5222;DHT22;2630;52.036;8.514;2022-09-13T16:34:06;21.90;99.90
5222;DHT22;2630;52.036;8.514;2022-09-13T16:36:32;21.80;99.90
5222;DHT22;2630;52.036;8.514;2022-09-13T16:38:58;21.80;99.90
5222;DHT22;2630;52.036;8.514;2022-09-13T16:41:25;21.80;99.90
5222;DHT22;2630;52.036;8.514;2022-09-13T16:43:52;21.80;99.90
5222;DHT22;2630;52.036;8.514;2022-09-13T16:46:18;21.80;99.90
5222;DHT22;2630;52.036;8.514;2022-09-13T16:48:44;21.80;99.90
5222;DHT22;2630;52.036;8.514;2022-09-13T16:51:11;21.80;99.90
5222;DHT22;2630;52.036;8.514;2022-09-13T16:53:40;21.80;99.90
5222;DHT22;2630;52.036;8.514;2022-09-13T16:56:14;21.70;99.90
5222;DHT22;2630;52.036;8.514;2022-09-13T16:58:41;21.70;99.90
5222;DHT22;2630;52.036;8.514;2022-09-13T17:01:09;21.60;99.90
5222;DHT22;2630;52.036;8.514;2022-09-13T17:03:36;21.50;99.90
5222;DHT22;2630;52.036;8.514;2022-09-13T17:06:07;21.50;99.90
5222;DHT22;2630;52.036;8.514;2022-09-13T17:08:35;21.40;99.90
5222;DHT22;2630;52.036;8.514;2022-09-13T17:11:05;21.40;99.90
5222;DHT22;2630;52.036;8.514;2022-09-13T17:13:32;21.30;99.90
5222;DHT22;2630;52.036;8.514;2022-09-13T17:18:23;21.00;99.90
5222;DHT22;2630;52.036;8.514;2022-09-13T17:23:16;20.90;99.90
5222;DHT22;2630;52.036;8.514;2022-09-13T17:25:47;20.80;99.90
5222;DHT22;2630;52.036;8.514;2022-09-13T17:28:14;20.70;99.90
5222;DHT22;2630;52.036;8.514;2022-09-13T17:30:40;20.60;99.90
5222;DHT22;2630;52.036;8.514;2022-09-13T17:33:06;20.50;99.90
5222;DHT22;2630;52.036;8.514;2022-09-13T17:35:33;20.40;99.90
5222;DHT22;2630;52.036;8.514;2022-09-13T17:37:59;20.20;99.90
5222;DHT22;2630;52.036;8.514;2022-09-13T17:45:18;19.90;99.90
5222;DHT22;2630;52.036;8.514;2022-09-13T17:47:44;19.80;99.90
5222;DHT22;2630;52.036;8.514;2022-09-13T17:50:10;19.70;99.90
5222;DHT22;2630;52.036;8.514;2022-09-13T17:52:36;19.60;99.90
5222;DHT22;2630;52.036;8.514;2022-09-13T17:55:03;19.50;99.90
5222;DHT22;2630;52.036;8.514;2022-09-13T17:57:29;19.40;99.90
5222;DHT22;2630;52.036;8.514;2022-09-13T17:59:54;19.30;99.90
5222;DHT22;2630;52.036;8.514;2022-09-13T18:02:20;19.20;99.90
5222;DHT22;2630;52.036;8.514;2022-09-13T18:04:48;19.10;99.90
5222;DHT22;2630;52.036;8.514;2022-09-13T18:07:15;19.00;99.90
5222;DHT22;2630;52.036;8.514;2022-09-13T18:09:40;18.90;99.90
5222;DHT22;2630;52.036;8.514;2022-09-13T18:12:06;18.80;99.90
5222;DHT22;2630;52.036;8.514;2022-09-13T18:21:50;18.30;99.90
5222;DHT22;2630;52.036;8.514;2022-09-13T18:46:25;17.70;99.90
5222;DHT22;2630;52.036;8.514;2022-09-13T18:48:53;17.70;99.90
5222;DHT22;2630;52.036;8.514;2022-09-13T18:51:20;17.60;99.90
5222;DHT22;2630;52.036;8.514;2022-09-13T18:53:47;17.60;99.90
5222;DHT22;2630;52.036;8.514;2022-09-13T18:56:14;17.50;99.90
5222;DHT22;2630;52.036;8.514;2022-09-13T19:01:16;17.40;99.90
5222;DHT22;2630;52.036;8.514;2022-09-13T19:03:49;17.30;99.90
5222;DHT22;2630;52.036;8.514;2022-09-13T19:06:17;17.30;99.90
5222;DHT22;2630;52.036;8.514;2022-09-13T19:11:10;17.30;99.90
5222;DHT22;2630;52.036;8.514;2022-09-13T19:13:36;17.30;99.90
5222;DHT22;2630;52.036;8.514;2022-09-13T19:16:04;17.30;99.90
5222;DHT22;2630;52.036;8.514;2022-09-13T19:21:04;17.20;99.90
5222;DHT22;2630;52.036;8.514;2022-09-13T19:23:32;17.10;99.90
5222;DHT22;2630;52.036;8.514;2022-09-13T19:26:26;17.10;99.90
5222;DHT22;2630;52.036;8.514;2022-09-13T19:28:55;17.10;99.90
5222;DHT22;2630;52.036;8.514;2022-09-13T19:33:52;16.90;99.90
5222;DHT22;2630;52.036;8.514;2022-09-13T19:36:20;16.80;99.90
5222;DHT22;2630;52.036;8.514;2022-09-13T19:38:48;16.90;99.90
5222;DHT22;2630;52.036;8.514;2022-09-13T19:41:15;16.90;99.90
5222;DHT22;2630;52.036;8.514;2022-09-13T19:43:43;16.80;99.90
5222;DHT22;2630;52.036;8.514;2022-09-13T19:46:12;16.90;99.90
5222;DHT22;2630;52.036;8.514;2022-09-13T19:51:15;16.90;99.90
5222;DHT22;2630;52.036;8.514;2022-09-13T19:58:35;16.80;99.90
5222;DHT22;2630;52.036;8.514;2022-09-13T20:01:10;16.80;99.90
5222;DHT22;2630;52.036;8.514;2022-09-13T20:03:36;16.80;99.90
5222;DHT22;2630;52.036;8.514;2022-09-13T20:06:04;16.80;99.90
5222;DHT22;2630;52.036;8.514;2022-09-13T20:11:09;17.00;99.90
5222;DHT22;2630;52.036;8.514;2022-09-13T20:13:35;16.90;99.90
5222;DHT22;2630;52.036;8.514;2022-09-13T20:16:17;17.00;99.90
5222;DHT22;2630;52.036;8.514;2022-09-13T20:18:43;17.00;99.90
5222;DHT22;2630;52.036;8.514;2022-09-13T20:21:09;17.00;99.90
5222;DHT22;2630;52.036;8.514;2022-09-13T20:23:37;17.00;99.90
5222;DHT22;2630;52.036;8.514;2022-09-13T20:26:04;17.00;99.90
5222;DHT22;2630;52.036;8.514;2022-09-13T20:28:36;17.00;99.90
5222;DHT22;2630;52.036;8.514;2022-09-13T20:31:02;17.00;99.90
5222;DHT22;2630;52.036;8.514;2022-09-13T20:40:48;17.20;99.90
5222;DHT22;2630;52.036;8.514;2022-09-13T20:43:14;17.30;99.90
5222;DHT22;2630;52.036;8.514;2022-09-13T20:45:40;17.20;99.90
5222;DHT22;2630;52.036;8.514;2022-09-13T20:48:06;17.10;99.90
5222;DHT22;2630;52.036;8.514;2022-09-13T20:50:31;17.10;99.90
5222;DHT22;2630;52.036;8.514;2022-09-13T20:52:57;17.10;99.90
5222;DHT22;2630;52.036;8.514;2022-09-13T20:55:23;17.10;99.90
5222;DHT22;2630;52.036;8.514;2022-09-13T20:57:58;17.10;99.90
5222;DHT22;2630;52.036;8.514;2022-09-13T21:00:25;17.00;99.90
5222;DHT22;2630;52.036;8.514;2022-09-13T21:02:51;17.10;99.90
5222;DHT22;2630;52.036;8.514;2022-09-13T21:05:17;17.00;99.90
5222;DHT22;2630;52.036;8.514;2022-09-13T21:07:43;17.00;99.90
5222;DHT22;2630;52.036;8.514;2022-09-13T21:10:27;17.00;99.90
5222;DHT22;2630;52.036;8.514;2022-09-13T21:12:54;17.00;99.90
5222;DHT22;2630;52.036;8.514;2022-09-13T21:15:20;17.00;99.90
5222;DHT22;2630;52.036;8.514;2022-09-13T21:17:46;16.70;99.90
5222;DHT22;2630;52.036;8.514;2022-09-13T21:25:08;16.80;99.90
5222;DHT22;2630;52.036;8.514;2022-09-13T21:30:05;16.80;99.90
5222;DHT22;2630;52.036;8.514;2022-09-13T21:32:32;16.80;99.90
5222;DHT22;2630;52.036;8.514;2022-09-13T21:34:59;16.50;99.90
5222;DHT22;2630;52.036;8.514;2022-09-13T21:37:26;16.40;99.90
5222;DHT22;2630;52.036;8.514;2022-09-13T21:39:51;16.40;99.90
5222;DHT22;2630;52.036;8.514;2022-09-13T21:42:17;16.40;99.90
5222;DHT22;2630;52.036;8.514;2022-09-13T21:47:09;16.30;99.90
5222;DHT22;2630;52.036;8.514;2022-09-13T21:59:21;16.20;99.90
5222;DHT22;2630;52.036;8.514;2022-09-13T22:01:49;16.10;99.90
5222;DHT22;2630;52.036;8.514;2022-09-13T22:04:18;15.90;99.90
5222;DHT22;2630;52.036;8.514;2022-09-13T22:06:46;16.00;99.90
5222;DHT22;2630;52.036;8.514;2022-09-13T22:09:13;16.00;99.90
5222;DHT22;2630;52.036;8.514;2022-09-13T22:11:43;15.90;99.90
5222;DHT22;2630;52.036;8.514;2022-09-13T22:14:11;15.80;99.90
5222;DHT22;2630;52.036;8.514;2022-09-13T22:16:39;15.80;99.90
5222;DHT22;2630;52.036;8.514;2022-09-13T22:19:11;15.80;99.90
5222;DHT22;2630;52.036;8.514;2022-09-13T22:21:40;15.80;99.90
5222;DHT22;2630;52.036;8.514;2022-09-13T22:24:07;15.80;99.90